createdAt,value
2018-09-28T00:00:29.237Z,0
2018-09-28T00:01:28.726Z,0
2018-09-28T00:02:28.724Z,0
2018-09-28T00:03:29.221Z,0
2018-09-28T00:04:29.206Z,0
2018-09-28T00:05:28.948Z,0
2018-09-28T00:06:29.200Z,0
2018-09-28T00:07:28.683Z,0
2018-09-28T00:08:29.182Z,0
2018-09-28T00:09:29.177Z,0
2018-09-28T00:10:28.660Z,0
2018-09-28T00:11:29.161Z,0
2018-09-28T00:12:29.147Z,0
2018-09-28T00:13:29.138Z,0
2018-09-28T00:14:29.202Z,0
2018-09-28T00:15:29.133Z,0
2018-09-28T00:16:29.156Z,0
2018-09-28T00:17:28.886Z,0
2018-09-28T00:18:28.600Z,0
2018-09-28T00:19:28.847Z,0
2018-09-28T00:20:28.841Z,0
2018-09-28T00:21:28.832Z,0
2018-09-28T00:22:29.074Z,0
2018-09-28T00:23:29.072Z,0
2018-09-28T00:24:29.058Z,0
2018-09-28T00:25:28.798Z,0
2018-09-28T00:26:29.049Z,0
2018-09-28T00:27:29.050Z,0
2018-09-28T00:28:28.783Z,0
2018-09-28T00:29:29.020Z,0
2018-09-28T00:30:29.015Z,0
2018-09-28T00:31:28.753Z,0
2018-09-28T00:32:28.746Z,0
2018-09-28T00:33:28.741Z,0
2018-09-28T00:34:29.014Z,0
2018-09-28T00:35:28.722Z,0
2018-09-28T00:36:28.972Z,0
2018-09-28T00:37:29.016Z,0
2018-09-28T00:38:28.954Z,0
2018-09-28T00:39:28.697Z,0
2018-09-28T00:40:28.686Z,0
2018-09-28T00:41:28.928Z,0
2018-09-28T00:42:28.922Z,0
2018-09-28T00:43:28.972Z,0
2018-09-28T00:44:28.906Z,0
2018-09-28T00:45:28.904Z,0
2018-09-28T00:46:28.889Z,0
2018-09-28T00:47:28.630Z,0
2018-09-28T00:48:28.880Z,0
2018-09-28T00:49:28.865Z,0
2018-09-28T00:50:28.863Z,0
2018-09-28T00:51:28.851Z,0
2018-09-28T00:52:28.840Z,0
2018-09-28T00:53:28.839Z,0
2018-09-28T00:54:28.828Z,0
2018-09-28T00:55:28.822Z,0
2018-09-28T00:56:28.810Z,0
2018-09-28T00:57:28.806Z,0
2018-09-28T00:58:28.795Z,0
2018-09-28T00:59:28.789Z,0
2018-09-28T01:00:28.788Z,0
2018-09-28T01:01:28.779Z,0
2018-09-28T01:02:28.761Z,0
2018-09-28T01:03:28.506Z,0
2018-09-28T01:04:28.753Z,0
2018-09-28T01:05:28.738Z,0
2018-09-28T01:06:28.481Z,0
2018-09-28T01:07:28.723Z,0
2018-09-28T01:08:28.735Z,0
2018-09-28T01:09:28.458Z,0
2018-09-28T01:10:28.703Z,0
2018-09-28T01:11:28.438Z,0
2018-09-28T01:12:28.431Z,0
2018-09-28T01:13:28.685Z,0
2018-09-28T01:14:28.667Z,0
2018-09-28T01:15:28.164Z,0
2018-09-28T01:16:28.656Z,0
2018-09-28T01:17:28.645Z,0
2018-09-28T01:18:28.642Z,0
2018-09-28T01:19:28.638Z,0
2018-09-28T01:20:28.378Z,0
2018-09-28T01:21:28.614Z,0
2018-09-28T01:22:28.349Z,0
2018-09-28T01:23:28.342Z,0
2018-09-28T01:24:28.595Z,0
2018-09-28T01:25:28.584Z,0
2018-09-28T01:26:28.573Z,0
2018-09-28T01:27:28.569Z,0
2018-09-28T01:28:28.316Z,0
2018-09-28T01:29:28.554Z,0
2018-09-28T01:30:28.561Z,0
2018-09-28T01:31:28.530Z,0
2018-09-28T01:32:28.526Z,0
2018-09-28T01:33:28.514Z,0
2018-09-28T01:34:28.509Z,0
2018-09-28T01:35:28.245Z,0
2018-09-28T01:36:28.486Z,0
2018-09-28T01:37:28.480Z,0
2018-09-28T01:38:28.221Z,0
2018-09-28T01:39:28.516Z,0
2018-09-28T01:40:28.455Z,0
2018-09-28T01:41:27.945Z,0
2018-09-28T01:42:28.439Z,0
2018-09-28T01:43:28.433Z,0
2018-09-28T01:44:28.425Z,0
2018-09-28T01:45:28.165Z,0
2018-09-28T01:46:28.164Z,0
2018-09-28T01:47:28.395Z,0
2018-09-28T01:48:28.387Z,0
2018-09-28T01:49:28.379Z,0
2018-09-28T01:50:28.379Z,0
2018-09-28T01:51:28.111Z,0
2018-09-28T01:52:28.102Z,0
2018-09-28T01:53:28.350Z,0
2018-09-28T01:54:28.337Z,0
2018-09-28T01:55:28.076Z,0
2018-09-28T01:56:28.327Z,0
2018-09-28T01:57:28.316Z,0
2018-09-28T01:58:28.304Z,0
2018-09-28T01:59:28.299Z,0
2018-09-28T02:00:28.290Z,0
2018-09-28T02:01:28.281Z,0
2018-09-28T02:02:28.271Z,0
2018-09-28T02:03:28.014Z,0
2018-09-28T02:04:28.002Z,0
2018-09-28T02:05:27.993Z,0
2018-09-28T02:06:28.233Z,0
2018-09-28T02:07:27.974Z,0
2018-09-28T02:08:27.715Z,0
2018-09-28T02:09:27.965Z,0
2018-09-28T02:10:28.204Z,0
2018-09-28T02:11:27.688Z,0
2018-09-28T02:12:28.372Z,0
2018-09-28T02:13:27.924Z,0
2018-09-28T02:14:27.914Z,0
2018-09-28T02:15:27.657Z,0
2018-09-28T02:16:28.154Z,0
2018-09-28T02:17:27.954Z,0
2018-09-28T02:18:28.136Z,0
2018-09-28T02:19:27.873Z,0
2018-09-28T02:20:28.134Z,0
2018-09-28T02:21:28.106Z,0
2018-09-28T02:22:28.153Z,0
2018-09-28T02:23:28.090Z,0
2018-09-28T02:24:28.083Z,0
2018-09-28T02:25:28.076Z,0
2018-09-28T02:26:28.078Z,0
2018-09-28T02:27:27.803Z,0
2018-09-28T02:28:28.058Z,0
2018-09-28T02:29:27.536Z,0
2018-09-28T02:30:27.782Z,0
2018-09-28T02:31:27.769Z,0
2018-09-28T02:32:28.013Z,0
2018-09-28T02:33:27.755Z,0
2018-09-28T02:34:27.743Z,0
2018-09-28T02:35:27.489Z,0
2018-09-28T02:36:27.984Z,0
2018-09-28T02:37:27.967Z,0
2018-09-28T02:38:27.959Z,0
2018-09-28T02:39:27.956Z,0
2018-09-28T02:40:27.441Z,0
2018-09-28T02:41:27.690Z,0
2018-09-28T02:42:27.945Z,0
2018-09-28T02:43:27.936Z,0
2018-09-28T02:44:27.915Z,0
2018-09-28T02:45:27.901Z,0
2018-09-28T02:46:27.889Z,0
2018-09-28T02:47:27.886Z,0
2018-09-28T02:48:27.870Z,0
2018-09-28T02:49:27.611Z,0
2018-09-28T02:50:27.858Z,0
2018-09-28T02:51:27.846Z,0
2018-09-28T02:52:27.842Z,0
2018-09-28T02:53:27.836Z,0
2018-09-28T02:54:27.824Z,0
2018-09-28T02:55:27.825Z,0
2018-09-28T02:56:27.806Z,0
2018-09-28T02:57:27.794Z,0
2018-09-28T02:58:27.792Z,0
2018-09-28T02:59:27.784Z,0
2018-09-28T03:00:27.518Z,0
2018-09-28T03:01:27.766Z,0
2018-09-28T03:02:27.760Z,0
2018-09-28T03:03:27.496Z,0
2018-09-28T03:04:27.752Z,0
2018-09-28T03:05:27.737Z,0
2018-09-28T03:06:28.396Z,0
2018-09-28T03:07:27.457Z,0
2018-09-28T03:08:27.446Z,0
2018-09-28T03:09:27.705Z,0
2018-09-28T03:10:27.427Z,0
2018-09-28T03:11:27.438Z,0
2018-09-28T03:12:27.412Z,0
2018-09-28T03:13:27.402Z,0
2018-09-28T03:14:27.396Z,0
2018-09-28T03:15:27.388Z,0
2018-09-28T03:16:27.384Z,0
2018-09-28T03:17:27.631Z,0
2018-09-28T03:18:27.616Z,0
2018-09-28T03:19:27.610Z,0
2018-09-28T03:20:27.595Z,0
2018-09-28T03:21:27.333Z,0
2018-09-28T03:22:27.584Z,0
2018-09-28T03:23:27.578Z,0
2018-09-28T03:24:27.562Z,0
2018-09-28T03:25:27.310Z,0
2018-09-28T03:26:27.547Z,0
2018-09-28T03:27:27.538Z,0
2018-09-28T03:28:27.527Z,0
2018-09-28T03:29:27.266Z,0
2018-09-28T03:30:27.276Z,0
2018-09-28T03:31:27.528Z,0
2018-09-28T03:32:27.503Z,0
2018-09-28T03:33:27.233Z,0
2018-09-28T03:34:27.223Z,0
2018-09-28T03:35:27.466Z,0
2018-09-28T03:36:27.459Z,0
2018-09-28T03:37:27.457Z,0
2018-09-28T03:38:27.449Z,0
2018-09-28T03:39:27.205Z,0
2018-09-28T03:40:27.288Z,0
2018-09-28T03:41:27.431Z,0
2018-09-28T03:42:27.436Z,0
2018-09-28T03:43:27.402Z,0
2018-09-28T03:44:27.396Z,0
2018-09-28T03:45:27.142Z,0
2018-09-28T03:46:27.378Z,0
2018-09-28T03:47:27.119Z,0
2018-09-28T03:48:27.129Z,0
2018-09-28T03:49:27.355Z,0
2018-09-28T03:50:26.838Z,0
2018-09-28T03:51:27.421Z,0
2018-09-28T03:52:27.327Z,0
2018-09-28T03:53:27.318Z,0
2018-09-28T03:54:27.320Z,0
2018-09-28T03:55:27.370Z,0
2018-09-28T03:56:27.294Z,0
2018-09-28T03:57:27.039Z,0
2018-09-28T03:58:27.280Z,0
2018-09-28T03:59:27.275Z,0
2018-09-28T04:00:27.265Z,0
2018-09-28T04:01:27.254Z,0
2018-09-28T04:02:27.244Z,0
2018-09-28T04:03:26.986Z,0
2018-09-28T04:04:27.223Z,0
2018-09-28T04:05:27.219Z,0
2018-09-28T04:06:27.226Z,0
2018-09-28T04:07:27.209Z,0
2018-09-28T04:08:26.944Z,0
2018-09-28T04:09:27.184Z,0
2018-09-28T04:10:27.178Z,0
2018-09-28T04:11:27.171Z,0
2018-09-28T04:12:27.168Z,0
2018-09-28T04:13:26.896Z,0
2018-09-28T04:14:27.140Z,0
2018-09-28T04:15:27.133Z,0
2018-09-28T04:16:26.875Z,0
2018-09-28T04:17:26.872Z,0
2018-09-28T04:18:27.121Z,0
2018-09-28T04:19:27.108Z,0
2018-09-28T04:20:27.100Z,0
2018-09-28T04:21:27.092Z,0
2018-09-28T04:22:27.090Z,0
2018-09-28T04:23:27.066Z,0
2018-09-28T04:24:26.807Z,4
2018-09-28T04:25:27.050Z,4
2018-09-28T04:26:27.054Z,0
2018-09-28T04:27:27.038Z,4
2018-09-28T04:28:27.024Z,4
2018-09-28T04:29:27.019Z,4
2018-09-28T04:30:27.006Z,8
2018-09-28T04:31:26.751Z,8
2018-09-28T04:32:26.748Z,8
2018-09-28T04:33:26.984Z,8
2018-09-28T04:34:26.969Z,8
2018-09-28T04:35:26.964Z,12
2018-09-28T04:36:26.707Z,16
2018-09-28T04:37:26.950Z,20
2018-09-28T04:38:26.947Z,20
2018-09-28T04:39:26.932Z,24
2018-09-28T04:40:26.922Z,32
2018-09-28T04:41:26.930Z,36
2018-09-28T04:42:26.905Z,40
2018-09-28T04:43:26.653Z,48
2018-09-28T04:44:26.643Z,56
2018-09-28T04:45:27.334Z,64
2018-09-28T04:46:26.875Z,80
2018-09-28T04:47:26.869Z,88
2018-09-28T04:48:26.853Z,104
2018-09-28T04:49:26.844Z,120
2018-09-28T04:50:26.839Z,132
2018-09-28T04:51:26.824Z,152
2018-09-28T04:52:26.827Z,168
2018-09-28T04:53:26.824Z,192
2018-09-28T04:54:26.816Z,216
2018-09-28T04:55:26.793Z,240
2018-09-28T04:56:26.823Z,268
2018-09-28T04:57:26.526Z,292
2018-09-28T04:58:26.263Z,324
2018-09-28T04:59:26.003Z,352
2018-09-28T05:00:26.752Z,392
2018-09-28T05:01:26.740Z,428
2018-09-28T05:02:26.481Z,464
2018-09-28T05:03:26.766Z,508
2018-09-28T05:04:26.718Z,548
2018-09-28T05:05:26.453Z,596
2018-09-28T05:06:26.445Z,640
2018-09-28T05:07:25.934Z,692
2018-09-28T05:08:26.683Z,736
2018-09-28T05:09:26.670Z,792
2018-09-28T05:10:26.416Z,856
2018-09-28T05:11:26.658Z,920
2018-09-28T05:12:26.659Z,976
2018-09-28T05:13:26.645Z,1044
2018-09-28T05:14:26.632Z,1108
2018-09-28T05:15:26.620Z,1172
2018-09-28T05:16:26.611Z,1244
2018-09-28T05:17:26.603Z,1328
2018-09-28T05:18:26.596Z,1424
2018-09-28T05:19:26.795Z,1512
2018-09-28T05:20:26.073Z,1592
2018-09-28T05:21:26.569Z,1676
2018-09-28T05:22:26.563Z,1760
2018-09-28T05:23:26.555Z,1840
2018-09-28T05:24:26.546Z,1940
2018-09-28T05:25:26.872Z,2040
2018-09-28T05:26:26.529Z,2148
2018-09-28T05:27:26.519Z,2252
2018-09-28T05:28:26.263Z,2364
2018-09-28T05:29:26.499Z,2492
2018-09-28T05:30:26.499Z,2628
2018-09-28T05:31:27.177Z,2824
2018-09-28T05:32:27.431Z,2992
2018-09-28T05:33:26.466Z,3044
2018-09-28T05:34:26.459Z,3124
2018-09-28T05:35:26.203Z,3252
2018-09-28T05:36:26.451Z,3392
2018-09-28T05:37:26.453Z,3540
2018-09-28T05:38:26.428Z,3704
2018-09-28T05:39:26.327Z,3684
2018-09-28T05:40:26.415Z,3612
2018-09-28T05:41:26.151Z,3568
2018-09-28T05:42:26.405Z,3684
2018-09-28T05:43:26.391Z,3884
2018-09-28T05:44:26.383Z,4676
2018-09-28T05:45:26.380Z,5232
2018-09-28T05:46:26.662Z,5244
2018-09-28T05:47:25.855Z,4928
2018-09-28T05:48:26.107Z,4840
2018-09-28T05:49:26.357Z,4412
2018-09-28T05:50:26.341Z,3936
2018-09-28T05:51:26.716Z,3640
2018-09-28T05:52:26.328Z,3048
2018-09-28T05:53:26.321Z,2540
2018-09-28T05:54:26.315Z,2232
2018-09-28T05:55:26.052Z,2376
2018-09-28T05:56:25.797Z,2428
2018-09-28T05:57:26.304Z,2244
2018-09-28T05:58:26.454Z,2088
2018-09-28T05:59:26.280Z,1816
2018-09-28T06:00:26.022Z,1980
2018-09-28T06:01:26.018Z,2540
2018-09-28T06:02:25.756Z,3028
2018-09-28T06:03:26.252Z,3124
2018-09-28T06:04:26.250Z,2948
2018-09-28T06:05:26.405Z,2752
2018-09-28T06:06:26.238Z,2596
2018-09-28T06:07:26.230Z,2568
2018-09-28T06:08:26.223Z,2408
2018-09-28T06:09:26.231Z,2240
2018-09-28T06:10:26.218Z,2008
2018-09-28T06:11:26.205Z,1936
2018-09-28T06:12:25.946Z,2044
2018-09-28T06:13:25.940Z,2076
2018-09-28T06:14:25.943Z,2024
2018-09-28T06:15:25.932Z,1816
2018-09-28T06:16:25.926Z,1752
2018-09-28T06:17:26.168Z,1492
2018-09-28T06:18:26.242Z,1340
2018-09-28T06:19:25.901Z,1300
2018-09-28T06:20:26.208Z,1312
2018-09-28T06:21:25.960Z,1332
2018-09-28T06:22:26.132Z,1416
2018-09-28T06:23:26.134Z,1564
2018-09-28T06:24:25.871Z,1812
2018-09-28T06:25:25.865Z,1812
2018-09-28T06:26:26.111Z,1648
2018-09-28T06:27:26.107Z,1692
2018-09-28T06:28:26.094Z,2132
2018-09-28T06:29:26.143Z,2320
2018-09-28T06:30:26.270Z,2296
2018-09-28T06:31:26.080Z,2236
2018-09-28T06:32:26.072Z,2196
2018-09-28T06:33:26.071Z,2048
2018-09-28T06:34:26.067Z,2040
2018-09-28T06:35:26.092Z,2100
2018-09-28T06:36:26.603Z,2252
2018-09-28T06:37:25.793Z,2316
2018-09-28T06:38:26.040Z,2288
2018-09-28T06:39:25.538Z,2312
2018-09-28T06:40:26.027Z,2380
2018-09-28T06:41:25.767Z,2596
2018-09-28T06:42:25.848Z,2708
2018-09-28T06:43:25.753Z,2556
2018-09-28T06:44:25.743Z,2300
2018-09-28T06:45:25.993Z,1980
2018-09-28T06:46:25.988Z,1844
2018-09-28T06:47:25.986Z,1956
2018-09-28T06:48:26.390Z,2080
2018-09-28T06:49:25.714Z,2148
2018-09-28T06:50:26.009Z,2228
2018-09-28T06:51:25.955Z,2248
2018-09-28T06:52:25.943Z,2260
2018-09-28T06:53:25.690Z,2260
2018-09-28T06:54:26.083Z,2104
2018-09-28T06:55:25.427Z,1860
2018-09-28T06:56:25.929Z,1644
2018-09-28T06:57:25.667Z,1540
2018-09-28T06:58:26.207Z,1516
2018-09-28T06:59:25.909Z,1464
2018-09-28T07:00:25.930Z,1412
2018-09-28T07:01:25.389Z,1452
2018-09-28T07:02:25.889Z,1564
2018-09-28T07:03:25.881Z,1864
2018-09-28T07:04:25.875Z,2196
2018-09-28T07:05:25.874Z,2272
2018-09-28T07:06:26.275Z,2508
2018-09-28T07:07:25.861Z,2736
2018-09-28T07:08:25.911Z,3060
2018-09-28T07:09:26.163Z,3612
2018-09-28T07:10:25.849Z,4356
2018-09-28T07:11:25.842Z,4944
2018-09-28T07:12:25.714Z,5160
2018-09-28T07:13:25.904Z,5792
2018-09-28T07:14:25.824Z,6992
2018-09-28T07:15:25.814Z,7592
2018-09-28T07:16:26.287Z,7572
2018-09-28T07:17:25.809Z,7148
2018-09-28T07:18:26.375Z,7080
2018-09-28T07:19:25.795Z,7608
2018-09-28T07:20:25.280Z,7836
2018-09-28T07:21:25.789Z,7588
2018-09-28T07:22:25.768Z,7400
2018-09-28T07:23:25.773Z,7184
2018-09-28T07:24:26.134Z,6988
2018-09-28T07:25:25.772Z,7232
2018-09-28T07:26:25.743Z,7788
2018-09-28T07:27:25.492Z,8520
2018-09-28T07:28:25.236Z,8996
2018-09-28T07:29:25.734Z,9292
2018-09-28T07:30:26.067Z,9584
2018-09-28T07:31:25.727Z,9180
2018-09-28T07:32:25.713Z,8556
2018-09-28T07:33:25.710Z,7876
2018-09-28T07:34:25.710Z,6480
2018-09-28T07:35:25.446Z,5744
2018-09-28T07:36:26.577Z,5520
2018-09-28T07:37:25.582Z,13456
2018-09-28T07:38:25.178Z,5848
2018-09-28T07:39:25.678Z,6132
2018-09-28T07:40:25.675Z,6716
2018-09-28T07:41:25.670Z,8452
2018-09-28T07:42:26.060Z,10068
2018-09-28T07:43:25.152Z,10604
2018-09-28T07:44:25.658Z,10972
2018-09-28T07:45:25.650Z,10668
2018-09-28T07:46:25.388Z,9924
2018-09-28T07:47:25.385Z,9188
2018-09-28T07:48:25.955Z,8660
2018-09-28T07:49:25.787Z,8384
2018-09-28T07:50:25.628Z,8392
2018-09-28T07:51:25.364Z,8440
2018-09-28T07:52:25.358Z,8488
2018-09-28T07:53:25.605Z,8720
2018-09-28T07:54:25.353Z,9728
2018-09-28T07:55:25.352Z,9356
2018-09-28T07:56:25.339Z,8940
2018-09-28T07:57:25.338Z,8324
2018-09-28T07:58:25.331Z,7952
2018-09-28T07:59:25.579Z,7928
2018-09-28T08:00:25.069Z,8076
2018-09-28T08:01:25.569Z,8544
2018-09-28T08:02:25.310Z,8324
2018-09-28T08:03:25.309Z,7820
2018-09-28T08:04:25.556Z,7428
2018-09-28T08:05:25.545Z,7196
2018-09-28T08:06:25.290Z,6992
2018-09-28T08:07:25.289Z,6876
2018-09-28T08:08:25.287Z,6740
2018-09-28T08:09:25.534Z,6760
2018-09-28T08:10:25.528Z,6776
2018-09-28T08:11:25.277Z,6752
2018-09-28T08:12:25.511Z,6752
2018-09-28T08:13:25.519Z,6744
2018-09-28T08:14:25.498Z,6852
2018-09-28T08:15:25.245Z,7056
2018-09-28T08:16:24.985Z,7328
2018-09-28T08:17:25.230Z,7532
2018-09-28T08:18:25.233Z,7604
2018-09-28T08:19:25.224Z,7744
2018-09-28T08:20:25.472Z,8072
2018-09-28T08:21:25.211Z,9080
2018-09-28T08:22:25.456Z,9920
2018-09-28T08:23:25.415Z,9716
2018-09-28T08:24:25.196Z,9120
2018-09-28T08:25:24.941Z,8864
2018-09-28T08:26:25.438Z,8992
2018-09-28T08:27:25.178Z,9016
2018-09-28T08:28:25.177Z,9288
2018-09-28T08:29:25.714Z,10084
2018-09-28T08:30:25.308Z,10964
2018-09-28T08:31:25.416Z,11888
2018-09-28T08:32:25.153Z,12056
2018-09-28T08:33:25.403Z,11540
2018-09-28T08:34:25.430Z,11916
2018-09-28T08:35:25.389Z,12632
2018-09-28T08:36:25.493Z,14144
2018-09-28T08:37:25.382Z,14708
2018-09-28T08:38:25.376Z,15140
2018-09-28T08:39:25.121Z,14836
2018-09-28T08:40:25.379Z,13452
2018-09-28T08:41:25.362Z,11692
2018-09-28T08:42:25.362Z,10108
2018-09-28T08:43:24.923Z,8800
2018-09-28T08:44:25.350Z,7692
2018-09-28T08:45:25.343Z,6860
2018-09-28T08:46:25.085Z,6376
2018-09-28T08:47:25.082Z,6260
2018-09-28T08:48:25.336Z,6208
2018-09-28T08:49:25.743Z,6400
2018-09-28T08:50:25.069Z,6476
2018-09-28T08:51:25.063Z,6428
2018-09-28T08:52:25.308Z,6424
2018-09-28T08:53:25.305Z,6328
2018-09-28T08:54:25.299Z,6272
2018-09-28T08:55:24.793Z,6288
2018-09-28T08:56:25.040Z,6432
2018-09-28T08:57:24.780Z,6820
2018-09-28T08:58:25.283Z,7540
2018-09-28T08:59:25.274Z,8412
2018-09-28T09:00:25.274Z,9256
2018-09-28T09:01:25.013Z,9840
2018-09-28T09:02:25.463Z,9732
2018-09-28T09:03:25.013Z,9140
2018-09-28T09:04:25.249Z,8356
2018-09-28T09:05:24.998Z,7816
2018-09-28T09:06:24.994Z,7412
2018-09-28T09:07:25.242Z,7068
2018-09-28T09:08:25.291Z,6772
2018-09-28T09:09:25.229Z,6788
2018-09-28T09:10:24.968Z,7056
2018-09-28T09:11:25.221Z,7408
2018-09-28T09:12:24.962Z,7432
2018-09-28T09:13:24.704Z,7600
2018-09-28T09:14:24.951Z,8620
2018-09-28T09:15:24.949Z,9892
2018-09-28T09:16:25.192Z,11572
2018-09-28T09:17:25.192Z,13132
2018-09-28T09:18:25.240Z,14340
2018-09-28T09:19:24.675Z,15096
2018-09-28T09:20:25.171Z,14820
2018-09-28T09:21:25.168Z,13968
2018-09-28T09:22:25.167Z,13760
2018-09-28T09:23:25.173Z,14140
2018-09-28T09:24:25.155Z,14600
2018-09-28T09:25:25.154Z,15252
2018-09-28T09:26:24.895Z,15784
2018-09-28T09:27:25.244Z,16192
2018-09-28T09:28:25.143Z,16016
2018-09-28T09:29:24.884Z,16256
2018-09-28T09:30:25.277Z,15372
2018-09-28T09:31:25.124Z,15620
2018-09-28T09:32:25.128Z,17728
2018-09-28T09:33:24.869Z,18560
2018-09-28T09:34:25.114Z,18368
2018-09-28T09:35:25.157Z,17536
2018-09-28T09:36:25.199Z,16928
2018-09-28T09:37:24.858Z,16064
2018-09-28T09:38:25.106Z,15108
2018-09-28T09:39:24.847Z,14552
2018-09-28T09:40:25.095Z,14028
2018-09-28T09:41:24.913Z,13968
2018-09-28T09:42:25.090Z,13304
2018-09-28T09:43:24.834Z,12500
2018-09-28T09:44:25.083Z,11924
2018-09-28T09:45:25.089Z,10680
2018-09-28T09:46:24.572Z,9616
2018-09-28T09:47:25.076Z,9688
2018-09-28T09:48:24.663Z,10824
2018-09-28T09:49:25.070Z,12940
2018-09-28T09:50:25.069Z,14152
2018-09-28T09:51:25.061Z,14872
2018-09-28T09:52:24.806Z,16128
2018-09-28T09:53:24.801Z,17312
2018-09-28T09:54:25.050Z,17568
2018-09-28T09:55:24.547Z,16800
2018-09-28T09:56:24.793Z,16192
2018-09-28T09:57:24.791Z,15776
2018-09-28T09:58:25.038Z,15712
2018-09-28T09:59:25.035Z,16384
2018-09-28T10:00:24.779Z,16448
2018-09-28T10:01:25.035Z,15764
2018-09-28T10:02:25.018Z,14944
2018-09-28T10:03:24.515Z,14216
2018-09-28T10:04:25.018Z,13844
2018-09-28T10:05:24.760Z,13812
2018-09-28T10:06:25.014Z,14160
2018-09-28T10:07:25.007Z,14616
2018-09-28T10:08:25.018Z,15084
2018-09-28T10:09:24.748Z,15468
2018-09-28T10:10:24.995Z,15616
2018-09-28T10:11:24.994Z,16320
2018-09-28T10:12:25.631Z,16864
2018-09-28T10:13:24.993Z,16640
2018-09-28T10:14:24.987Z,15588
2018-09-28T10:15:24.981Z,14672
2018-09-28T10:16:24.987Z,13444
2018-09-28T10:17:24.737Z,12432
2018-09-28T10:18:24.982Z,11892
2018-09-28T10:19:25.483Z,11760
2018-09-28T10:20:24.720Z,12056
2018-09-28T10:21:25.003Z,12260
2018-09-28T10:22:24.960Z,12324
2018-09-28T10:23:24.705Z,12204
2018-09-28T10:24:24.703Z,11784
2018-09-28T10:25:24.696Z,11344
2018-09-28T10:26:24.945Z,10776
2018-09-28T10:27:25.205Z,10424
2018-09-28T10:28:25.135Z,10480
2018-09-28T10:29:24.687Z,10772
2018-09-28T10:30:24.680Z,11224
2018-09-28T10:31:24.676Z,11784
2018-09-28T10:32:24.928Z,12340
2018-09-28T10:33:24.677Z,12332
2018-09-28T10:34:24.955Z,12392
2018-09-28T10:35:24.414Z,12564
2018-09-28T10:36:24.910Z,13016
2018-09-28T10:37:24.913Z,13608
2018-09-28T10:38:24.918Z,14152
2018-09-28T10:39:24.221Z,14448
2018-09-28T10:40:25.074Z,14192
2018-09-28T10:41:25.036Z,13480
2018-09-28T10:42:24.893Z,12384
2018-09-28T10:43:24.640Z,11524
2018-09-28T10:44:24.887Z,11368
2018-09-28T10:45:24.865Z,11244
2018-09-28T10:46:24.664Z,10872
2018-09-28T10:47:24.879Z,9976
2018-09-28T10:48:24.867Z,9072
2018-09-28T10:49:24.795Z,8676
2018-09-28T10:50:24.867Z,8404
2018-09-28T10:51:25.258Z,8604
2018-09-28T10:52:26.252Z,9632
2018-09-28T10:53:24.351Z,10940
2018-09-28T10:54:24.893Z,11900
2018-09-28T10:55:24.602Z,12072
2018-09-28T10:56:24.840Z,11528
2018-09-28T10:57:25.169Z,10664
2018-09-28T10:58:25.141Z,9980
2018-09-28T10:59:24.841Z,9844
2018-09-28T11:00:24.939Z,9996
2018-09-28T11:01:24.579Z,10460
2018-09-28T11:02:24.826Z,11476
2018-09-28T11:03:25.180Z,12020
2018-09-28T11:04:25.201Z,12180
2018-09-28T11:05:24.815Z,11488
2018-09-28T11:06:24.814Z,10540
2018-09-28T11:07:24.560Z,9672
2018-09-28T11:08:25.135Z,8452
2018-09-28T11:09:24.714Z,7708
2018-09-28T11:10:25.192Z,6924
2018-09-28T11:11:24.795Z,6220
2018-09-28T11:12:24.539Z,5776
2018-09-28T11:13:24.833Z,5492
2018-09-28T11:14:24.789Z,5292
2018-09-28T11:15:25.085Z,5556
2018-09-28T11:16:24.532Z,5868
2018-09-28T11:17:24.773Z,6308
2018-09-28T11:18:24.777Z,6352
2018-09-28T11:19:24.768Z,6204
2018-09-28T11:20:24.765Z,6028
2018-09-28T11:21:25.239Z,6268
2018-09-28T11:22:24.763Z,6668
2018-09-28T11:23:24.496Z,7096
2018-09-28T11:24:24.239Z,6820
2018-09-28T11:25:24.751Z,6452
2018-09-28T11:26:25.021Z,5992
2018-09-28T11:27:24.911Z,5676
2018-09-28T11:28:24.726Z,5228
2018-09-28T11:29:24.478Z,4996
2018-09-28T11:30:24.473Z,4776
2018-09-28T11:31:24.466Z,4680
2018-09-28T11:32:24.710Z,4756
2018-09-28T11:33:25.036Z,4868
2018-09-28T11:34:24.455Z,5040
2018-09-28T11:35:24.197Z,5372
2018-09-28T11:36:24.700Z,5760
2018-09-28T11:37:24.438Z,6004
2018-09-28T11:38:24.433Z,6040
2018-09-28T11:39:24.737Z,6024
2018-09-28T11:40:24.685Z,6276
2018-09-28T11:41:24.175Z,6596
2018-09-28T11:42:24.668Z,6768
2018-09-28T11:43:24.583Z,7216
2018-09-28T11:44:24.418Z,8040
2018-09-28T11:45:25.216Z,8960
2018-09-28T11:46:24.663Z,9588
2018-09-28T11:47:24.648Z,10324
2018-09-28T11:48:24.392Z,11044
2018-09-28T11:49:24.751Z,11640
2018-09-28T11:50:24.640Z,12004
2018-09-28T11:51:24.879Z,12244
2018-09-28T11:52:24.633Z,12232
2018-09-28T11:53:24.669Z,11924
2018-09-28T11:54:24.364Z,10680
2018-09-28T11:55:24.615Z,9664
2018-09-28T11:56:24.611Z,8900
2018-09-28T11:57:24.907Z,8448
2018-09-28T11:58:24.611Z,8400
2018-09-28T11:59:24.392Z,8432
2018-09-28T12:00:24.609Z,8324
2018-09-28T12:01:24.590Z,8436
2018-09-28T12:02:24.600Z,8752
2018-09-28T12:03:24.585Z,9080
2018-09-28T12:04:24.587Z,9684
2018-09-28T12:05:24.074Z,10308
2018-09-28T12:06:25.155Z,10436
2018-09-28T12:07:24.567Z,10892
2018-09-28T12:08:24.562Z,11632
2018-09-28T12:09:24.833Z,12564
2018-09-28T12:10:24.553Z,12708
2018-09-28T12:11:24.299Z,12164
2018-09-28T12:12:24.332Z,12036
2018-09-28T12:13:24.774Z,12028
2018-09-28T12:14:24.286Z,11812
2018-09-28T12:15:24.669Z,11388
2018-09-28T12:16:24.535Z,10988
2018-09-28T12:17:24.530Z,10132
2018-09-28T12:18:24.570Z,9280
2018-09-28T12:19:24.276Z,8732
2018-09-28T12:20:24.517Z,8700
2018-09-28T12:21:24.813Z,8648
2018-09-28T12:22:24.258Z,8148
2018-09-28T12:23:24.255Z,7600
2018-09-28T12:24:24.840Z,7208
2018-09-28T12:25:24.500Z,7088
2018-09-28T12:26:24.241Z,7612
2018-09-28T12:27:24.287Z,7876
2018-09-28T12:28:24.249Z,7908
2018-09-28T12:29:24.238Z,7664
2018-09-28T12:30:24.862Z,7516
2018-09-28T12:31:24.231Z,7992
2018-09-28T12:32:24.228Z,8708
2018-09-28T12:33:24.550Z,8928
2018-09-28T12:34:24.221Z,8820
2018-09-28T12:35:24.268Z,8580
2018-09-28T12:36:24.927Z,8032
2018-09-28T12:37:24.208Z,7652
2018-09-28T12:38:24.502Z,7224
2018-09-28T12:39:24.490Z,6896
2018-09-28T12:40:24.204Z,7148
2018-09-28T12:41:24.444Z,6996
2018-09-28T12:42:24.861Z,6996
2018-09-28T12:43:24.186Z,6956
2018-09-28T12:44:25.015Z,6912
2018-09-28T12:45:25.048Z,6732
2018-09-28T12:46:24.430Z,6776
2018-09-28T12:47:24.421Z,7264
2018-09-28T12:48:24.784Z,7952
2018-09-28T12:49:24.424Z,8736
2018-09-28T12:50:24.812Z,9280
2018-09-28T12:51:24.157Z,10232
2018-09-28T12:52:24.405Z,10260
2018-09-28T12:53:24.408Z,9992
2018-09-28T12:54:24.417Z,9604
2018-09-28T12:55:24.396Z,8696
2018-09-28T12:56:24.844Z,7992
2018-09-28T12:57:24.140Z,7372
2018-09-28T12:58:24.132Z,7244
2018-09-28T12:59:24.376Z,7020
2018-09-28T13:00:24.740Z,6952
2018-09-28T13:01:24.123Z,7040
2018-09-28T13:02:24.444Z,7016
2018-09-28T13:03:24.112Z,7076
2018-09-28T13:04:24.362Z,7272
2018-09-28T13:05:24.357Z,7292
2018-09-28T13:06:24.286Z,6940
2018-09-28T13:07:24.348Z,6876
2018-09-28T13:08:24.674Z,6780
2018-09-28T13:09:24.593Z,6812
2018-09-28T13:10:24.341Z,6928
2018-09-28T13:11:24.125Z,7224
2018-09-28T13:12:24.883Z,7824
2018-09-28T13:13:24.331Z,8600
2018-09-28T13:14:24.357Z,9484
2018-09-28T13:15:24.489Z,9752
2018-09-28T13:16:24.320Z,9300
2018-09-28T13:17:24.321Z,8752
2018-09-28T13:18:24.382Z,8100
2018-09-28T13:19:24.313Z,7676
2018-09-28T13:20:24.394Z,7416
2018-09-28T13:21:24.304Z,6844
2018-09-28T13:22:24.310Z,6320
2018-09-28T13:23:24.298Z,5876
2018-09-28T13:24:24.687Z,5204
2018-09-28T13:25:24.287Z,4804
2018-09-28T13:26:24.659Z,4572
2018-09-28T13:27:24.283Z,4364
2018-09-28T13:28:24.271Z,4116
2018-09-28T13:29:24.603Z,4104
2018-09-28T13:30:24.290Z,4024
2018-09-28T13:31:24.267Z,3904
2018-09-28T13:32:24.693Z,3832
2018-09-28T13:33:24.262Z,3808
2018-09-28T13:34:24.248Z,3656
2018-09-28T13:35:23.990Z,3788
2018-09-28T13:36:24.844Z,3860
2018-09-28T13:37:23.981Z,3988
2018-09-28T13:38:24.321Z,4116
2018-09-28T13:39:23.975Z,4316
2018-09-28T13:40:24.469Z,4600
2018-09-28T13:41:24.213Z,4708
2018-09-28T13:42:24.629Z,4600